Windfall, IN (46076)

4:30 PM EST on February 14, 2016 (GMT -0500)
Windfall | | Change Station
CLOSE
Current Station
Personal Weather Station
Location: Windfall, IN
Elevation: 883 ft
Nearby Weather Stations

Elev 883 ft 40.36 °N, 85.95 °W | Updated 3 seconds ago

Snow
Snow
18.7 °F
Feels Like 11 °F
N
5.3
Wind Variable Wind from ESE
Gusts 7.8 mph

Today
High -- | Low -- °F
--% Chance of Precip.
Yesterday
High -- | Low -- °F
Precip. -- in
Pressure 30.17 in
Visibility 2.0 miles
Clouds Mostly Cloudy 1400 ft
Overcast 2000 ft
Windchill 11 °F
Dew Point 15 °F
Humidity 86%
Rainfall 0.00 in
Snow Depth Not available.
7:39 AM 6:17 PM
Waxing Crescent, 45% visible
METAR KOKK 142115Z AUTO 12012KT 2SM BKN014 OVC020 M08/M12 A3017 RMK AO1
Pressure 30.17 in
Visibility 2.0 miles
Clouds Mostly Cloudy 1400 ft
Overcast 2000 ft
Windchill 11 °F
Dew Point 15 °F
Humidity 86%
Rainfall 0.00 in
Snow Depth Not available.
7:39 AM 6:17 PM
Waxing Crescent, 45% visible
METAR KOKK 142115Z AUTO 12012KT 2SM BKN014 OVC020 M08/M12 A3017 RMK AO1

10-Day Weather Forecast

Almanac

Astronomy

Feb. 14, 2016 Rise Set
Actual Time
Civil Twilight
Nautical Twilight
Astronomical Twilight
Moon
Length of Visible Light
Length of Day
Tomorrow will be .
, % of the Moon is Illuminated

Today's Extremes

State Highs State Lows

Community

WunderPhotos

Upload Photos

1,892,887 photos uploaded!

WunderBlog® & News

Nearby

Air Quality

  Air Quality AQ Index Pollutant
Not available.

Snow Depth

Station Depth Elevation

Earthquake Activity

City Distance Mag. Time & Date
Minimum magnitude displayed is 2.5.

Coastal Water Temperatures

Place Temperature

Stations

Nearby Weather Stations

Station Location Temp. Windchill Dew Point Humidity Wind Precip. Elev Updated Type
                   

Watches & Warnings

There are currently no watches in effect.